Captain Hank — WCR9342 — position and weather

sailwx.info

Track history (hours):
 
Tides and Currents Weather Stations Pressure Air Temp Water Temp Dewpoint Dewpoint Depression Visibility Wind Speed Wind Dir Waves Ship Positions

Captain Hank

Owner: SALISBURY TOWING CORPORATION, Havre de Grace, MD. More information available from US FCC via Universal Licensing System and Coast Guard Vessel Documentation Center.

Last reported at 2018-May-24 09:00 UTC. Time now 2018-May-24 21:13 UTC.
Position N 38°56' W 076°24'.

Length 24 m.

Type: Tug. MMSI: 367031390.

Date/timePositionNaut miles runAvg speedWind from/ knotsBaromVisibWave heightAir tempDewpointWater temp
2018-May-24 09:00N 38°56' W 076°24'4 8.0
2018-May-24 08:31N 39°00' W 076°23'4 7.3
2018-May-24 08:00N 39°04' W 076°21'3 7.0
2018-May-24 07:30N 39°07' W 076°20'4 6.8
2018-May-24 06:57N 39°10' W 076°18'3 7.0
2018-May-24 06:29N 39°13' W 076°15'4 7.1
2018-May-24 05:52N 39°17' W 076°14'3 6.9
2018-May-24 05:31N 39°19' W 076°12'4 7.3
2018-May-24 04:59N 39°22' W 076°09'4 7.7
2018-May-24 04:30N 39°24' W 076°04'3 6.8
2018-May-24 04:01N 39°27' W 076°02'4 7.4
2018-May-24 03:30N 39°29' W 076°05'3 6.7
2018-May-24 03:01N 39°33' W 076°05'0 0.3
2018-May-24 02:30N 39°33' W 076°04'2 3.9
2018-May-24 02:00N 39°34' W 076°06'0 0.2
2018-May-24 01:30N 39°34' W 076°06'0 0.1
2018-May-24 01:00N 39°34' W 076°06'0 0.0
2018-May-23 22:04N 39°34' W 076°06'0 0.8
2018-May-23 22:00N 39°34' W 076°06'2 4.3
2018-May-23 21:30N 39°33' W 076°05'4 7.7
2018-May-23 21:00N 39°29' W 076°04'4 7.6
2018-May-23 20:29N 39°25' W 076°03'5 9.2
2018-May-23 19:56N 39°22' W 076°08'24 9.1
2018-May-23 17:17N 39°01' W 076°22'3 9.4
2018-May-23 17:00N 38°58' W 076°23'5 9.5
2018-May-23 16:30N 38°54' W 076°25'5 9.4
2018-May-23 15:56N 38°48' W 076°27'116 8.5
2018-May-23 02:13N 36°52' W 076°20'2 8.4
2018-May-23 02:00N 36°51' W 076°18'2 1.3
2018-May-23 00:36N 36°50' W 076°16'0 1.4
2018-May-23 00:19N 36°50' W 076°17'0 0.4
2018-May-22 23:59N 36°50' W 076°17'1 2.9
2018-May-22 23:30N 36°49' W 076°17'0 0.0
2018-May-22 23:00N 36°49' W 076°17'0 0.0
2018-May-22 22:30N 36°49' W 076°17'0 0.0
2018-May-22 22:00N 36°49' W 076°17'1 2.4
2018-May-22 21:30N 36°50' W 076°17'0 0.0
2018-May-22 21:00N 36°50' W 076°17'0 0.0
2018-May-22 20:30N 36°50' W 076°17'0 0.0
2018-May-22 19:58N 36°50' W 076°17'0 0.0
2018-May-22 19:24N 36°50' W 076°17'0 0.0
2018-May-22 19:00N 36°50' W 076°17'0 0.0
2018-May-22 18:30N 36°50' W 076°17'0 0.0
2018-May-22 18:00N 36°50' W 076°17'1 1.8
2018-May-22 17:24N 36°51' W 076°18'38 8.3
2018-May-22 12:51N 37°28' W 076°11'3 8.3
2018-May-22 12:30N 37°31' W 076°11'4 8.1
2018-May-22 12:00N 37°35' W 076°11'12 8.0
2018-May-22 10:28N 37°48' W 076°11'4 7.6
2018-May-22 10:00N 37°51' W 076°11'58 8.1
2018-May-22 02:54N 38°47' W 076°27'3 7.8
2018-May-22 02:29N 38°51' W 076°26'4 7.8
2018-May-22 02:00N 38°54' W 076°25'5 8.0
2018-May-22 01:21N 38°59' W 076°23'25 9.0
2018-May-21 22:36N 39°22' W 076°09'210.0
2018-May-21 22:26N 39°22' W 076°07'4 9.4
2018-May-21 22:00N 39°25' W 076°03'4 8.2
2018-May-21 21:30N 39°29' W 076°04'4 8.0
2018-May-21 20:59N 39°33' W 076°05'2 3.5
2018-May-21 20:29N 39°34' W 076°06'0 0.0
2018-May-21 20:00N 39°34' W 076°06'0 0.0
2018-May-21 19:30N 39°34' W 076°06'0 0.0
2018-May-21 19:00N 39°34' W 076°06'0 0.1
2018-May-21 18:09N 39°34' W 076°06'0 0.5
2018-May-21 18:00N 39°34' W 076°06'4 7.7
2018-May-21 17:29N 39°30' W 076°05'4 8.4
2018-May-21 17:00N 39°27' W 076°02'31 9.3
2018-May-21 13:40N 39°00' W 076°23'2 9.2
2018-May-21 13:30N 38°59' W 076°23'4 8.9
2018-May-21 13:00N 38°55' W 076°24'6 8.7
2018-May-21 12:20N 38°49' W 076°26'117 8.0
2018-May-20 21:44N 36°52' W 076°20'2 9.4
2018-May-20 21:30N 36°51' W 076°18'2 3.4
2018-May-20 21:00N 36°50' W 076°16'1 2.4
2018-May-20 20:30N 36°51' W 076°17'0 0.3
2018-May-20 19:52N 36°50' W 076°17'0 0.0
2018-May-20 19:13N 36°50' W 076°17'0 0.0
2018-May-20 18:56N 36°50' W 076°17'2 4.2
2018-May-20 18:28N 36°50' W 076°15'0 0.2
2018-May-20 18:00N 36°50' W 076°15'3 6.0
2018-May-20 17:29N 36°51' W 076°19'117 7.5
2018-May-20 01:54N 38°48' W 076°27'3 7.2
2018-May-20 01:27N 38°51' W 076°26'3 7.2
2018-May-20 01:00N 38°54' W 076°26'4 7.1
2018-May-20 00:29N 38°58' W 076°24'4 7.4
2018-May-20 00:00N 39°01' W 076°22'4 7.5
2018-May-19 23:29N 39°05' W 076°21'10 7.9
2018-May-19 22:10N 39°14' W 076°15'2 8.9
2018-May-19 21:59N 39°16' W 076°14'7 9.2
2018-May-19 21:11N 39°22' W 076°09'3 9.3
2018-May-19 20:51N 39°23' W 076°05'3 8.4
2018-May-19 20:30N 39°25' W 076°02'4 7.5
2018-May-19 20:00N 39°29' W 076°04'3 6.9
2018-May-19 19:30N 39°32' W 076°05'2 4.6
2018-May-19 18:59N 39°34' W 076°06'0 0.5
2018-May-19 18:30N 39°34' W 076°06'0 0.0
2018-May-19 18:00N 39°34' W 076°06'0 0.6
2018-May-19 17:30N 39°34' W 076°06'3 6.5
2018-May-19 17:00N 39°31' W 076°05'4 7.4
2018-May-19 16:30N 39°28' W 076°03'4 8.1
2018-May-19 15:59N 39°24' W 076°04'6 9.8
2018-May-19 15:25N 39°21' W 076°10'16 8.8
2018-May-19 13:33N 39°11' W 076°27'0 8.4
2018-May-19 13:30N 39°11' W 076°28'4 8.1
2018-May-19 13:00N 39°13' W 076°32'3 6.3
2018-May-19 12:30N 39°15' W 076°36'0 1.0
2018-May-19 12:00N 39°15' W 076°36'0 0.1
2018-May-19 11:30N 39°15' W 076°36'2 3.8
2018-May-19 10:58N 39°15' W 076°33'14 7.2
2018-May-19 09:02N 39°03' W 076°23'3 7.3
2018-May-19 08:37N 39°00' W 076°22'1 7.2
2018-May-19 08:30N 38°60' W 076°23'3 6.4
2018-May-19 08:01N 38°57' W 076°24'3 6.7
2018-May-19 07:30N 38°53' W 076°24'2 4.2
2018-May-19 07:00N 38°51' W 076°25'3 4.8
2018-May-19 06:26N 38°49' W 076°26'  
2018-May-16 20:24N 38°47' W 076°27'4 7.9
2018-May-16 19:57N 38°51' W 076°25'4 8.3
2018-May-16 19:30N 38°54' W 076°24'23 8.5
2018-May-16 16:51N 39°15' W 076°14'3 8.5
2018-May-16 16:30N 39°18' W 076°13'4 8.4
2018-May-16 16:00N 39°21' W 076°09'4 8.1
2018-May-16 15:30N 39°23' W 076°05'3 6.8
2018-May-16 15:00N 39°26' W 076°02'24 4.9
2018-May-16 10:02N 39°11' W 076°27'0 8.7
2018-May-16 10:00N 39°11' W 076°27'4 8.6
2018-May-16 09:30N 39°13' W 076°32'4 7.6
2018-May-16 09:00N 39°16' W 076°35'1 2.3
2018-May-16 08:30N 39°15' W 076°36'1 1.6
2018-May-16 08:00N 39°15' W 076°36'0 0.7
2018-May-16 07:30N 39°16' W 076°35'0 0.9
2018-May-16 07:00N 39°15' W 076°36'1 1.3
2018-May-16 06:28N 39°15' W 076°36'1 2.6
2018-May-16 06:00N 39°15' W 076°35'3 6.3
2018-May-16 05:30N 39°13' W 076°32'28 5.4
2018-May-16 00:19N 39°32' W 076°05'2 1.6
2018-May-15 22:53N 39°34' W 076°06'0 0.0
2018-May-15 22:30N 39°34' W 076°06'0 0.0
2018-May-15 21:49N 39°34' W 076°06'0 0.0
2018-May-15 21:21N 39°34' W 076°06'0 0.0
2018-May-15 20:59N 39°34' W 076°06'0 0.1
2018-May-15 20:01N 39°34' W 076°06'0 0.0
2018-May-15 19:54N 39°34' W 076°06'0 0.0
2018-May-15 19:30N 39°34' W 076°06'2 3.6
2018-May-15 19:00N 39°33' W 076°05'4 7.5
2018-May-15 18:29N 39°29' W 076°05'3 7.0
2018-May-15 18:00N 39°26' W 076°02'4 6.1
2018-May-15 17:21N 39°23' W 076°06'2 4.1
2018-May-15 16:58N 39°22' W 076°07'23 7.2
2018-May-15 13:43N 39°02' W 076°22'2 8.2
2018-May-15 13:30N 39°00' W 076°23'4 8.2
2018-May-15 13:00N 38°56' W 076°24'4 8.4
2018-May-15 12:30N 38°52' W 076°25'40 8.3
2018-May-15 07:40N 38°12' W 076°17'1 9.0
2018-May-15 07:30N 38°11' W 076°17'15 8.9
2018-May-15 05:52N 37°57' W 076°12'4 9.7
2018-May-15 05:30N 37°54' W 076°10'61 7.8
2018-May-14 21:39N 36°53' W 076°20'2 7.9
2018-May-14 21:26N 36°52' W 076°19'4 4.5
2018-May-14 20:39N 36°50' W 076°15'1 6.2
2018-May-14 20:28N 36°50' W 076°16'1 2.5
2018-May-14 20:00N 36°50' W 076°17'0 0.0
2018-May-14 19:24N 36°50' W 076°17'0 0.0
2018-May-14 19:00N 36°50' W 076°17'0 0.0
2018-May-14 18:26N 36°50' W 076°17'0 0.0
2018-May-14 18:00N 36°50' W 076°17'0 0.0
2018-May-14 17:30N 36°50' W 076°17'0 0.0
2018-May-14 17:00N 36°50' W 076°17'0 0.0
2018-May-14 16:29N 36°50' W 076°17'0 0.0
2018-May-14 16:00N 36°50' W 076°17'0 0.0
2018-May-14 15:29N 36°50' W 076°17'0 0.0
2018-May-14 15:00N 36°50' W 076°17'0 0.0
2018-May-14 14:30N 36°50' W 076°17'0 0.0
2018-May-14 14:00N 36°50' W 076°17'0 0.0
2018-May-14 13:30N 36°50' W 076°17'0 0.0
2018-May-14 13:00N 36°50' W 076°17'0 0.0
2018-May-14 12:29N 36°50' W 076°17'0 0.0
2018-May-14 12:00N 36°50' W 076°17'0 0.0
2018-May-14 11:30N 36°50' W 076°17'0 0.0
2018-May-14 11:00N 36°50' W 076°17'0 0.0
2018-May-14 10:25N 36°50' W 076°17'0 0.0
2018-May-14 10:00N 36°50' W 076°17'0 0.0
2018-May-14 09:30N 36°50' W 076°17'  
Track history (hours):
 
Tides and Currents Weather Stations Pressure Air Temp Water Temp Dewpoint Dewpoint Depression Visibility Wind Speed Wind Dir Waves Ship Positions

Captain Hank

Owner: SALISBURY TOWING CORPORATION, Havre de Grace, MD. More information available from US FCC via Universal Licensing System and Coast Guard Vessel Documentation Center.

Last reported at 2018-May-24 09:00 UTC. Time now 2018-May-24 21:13 UTC.
Position N 38°56' W 076°24'.

Length 24 m.

Type: Tug. MMSI: 367031390.

Date/timePositionNaut miles runAvg speedWind from/ knotsBaromVisibWave heightAir tempDewpointWater temp
2018-May-24 09:00N 38°56' W 076°24'4 8.0
2018-May-24 08:31N 39°00' W 076°23'4 7.3
2018-May-24 08:00N 39°04' W 076°21'3 7.0
2018-May-24 07:30N 39°07' W 076°20'4 6.8
2018-May-24 06:57N 39°10' W 076°18'3 7.0
2018-May-24 06:29N 39°13' W 076°15'4 7.1
2018-May-24 05:52N 39°17' W 076°14'3 6.9
2018-May-24 05:31N 39°19' W 076°12'4 7.3
2018-May-24 04:59N 39°22' W 076°09'4 7.7
2018-May-24 04:30N 39°24' W 076°04'3 6.8
2018-May-24 04:01N 39°27' W 076°02'4 7.4
2018-May-24 03:30N 39°29' W 076°05'3 6.7
2018-May-24 03:01N 39°33' W 076°05'0 0.3
2018-May-24 02:30N 39°33' W 076°04'2 3.9
2018-May-24 02:00N 39°34' W 076°06'0 0.2
2018-May-24 01:30N 39°34' W 076°06'0 0.1
2018-May-24 01:00N 39°34' W 076°06'0 0.0
2018-May-23 22:04N 39°34' W 076°06'0 0.8
2018-May-23 22:00N 39°34' W 076°06'2 4.3
2018-May-23 21:30N 39°33' W 076°05'4 7.7
2018-May-23 21:00N 39°29' W 076°04'4 7.6
2018-May-23 20:29N 39°25' W 076°03'5 9.2
2018-May-23 19:56N 39°22' W 076°08'24 9.1
2018-May-23 17:17N 39°01' W 076°22'3 9.4
2018-May-23 17:00N 38°58' W 076°23'5 9.5
2018-May-23 16:30N 38°54' W 076°25'5 9.4
2018-May-23 15:56N 38°48' W 076°27'116 8.5
2018-May-23 02:13N 36°52' W 076°20'2 8.4
2018-May-23 02:00N 36°51' W 076°18'2 1.3
2018-May-23 00:36N 36°50' W 076°16'0 1.4
2018-May-23 00:19N 36°50' W 076°17'0 0.4
2018-May-22 23:59N 36°50' W 076°17'1 2.9
2018-May-22 23:30N 36°49' W 076°17'0 0.0
2018-May-22 23:00N 36°49' W 076°17'0 0.0
2018-May-22 22:30N 36°49' W 076°17'0 0.0
2018-May-22 22:00N 36°49' W 076°17'1 2.4
2018-May-22 21:30N 36°50' W 076°17'0 0.0
2018-May-22 21:00N 36°50' W 076°17'0 0.0
2018-May-22 20:30N 36°50' W 076°17'0 0.0
2018-May-22 19:58N 36°50' W 076°17'0 0.0
2018-May-22 19:24N 36°50' W 076°17'0 0.0
2018-May-22 19:00N 36°50' W 076°17'0 0.0
2018-May-22 18:30N 36°50' W 076°17'0 0.0
2018-May-22 18:00N 36°50' W 076°17'1 1.8
2018-May-22 17:24N 36°51' W 076°18'38 8.3
2018-May-22 12:51N 37°28' W 076°11'3 8.3
2018-May-22 12:30N 37°31' W 076°11'4 8.1
2018-May-22 12:00N 37°35' W 076°11'12 8.0
2018-May-22 10:28N 37°48' W 076°11'4 7.6
2018-May-22 10:00N 37°51' W 076°11'58 8.1
2018-May-22 02:54N 38°47' W 076°27'3 7.8
2018-May-22 02:29N 38°51' W 076°26'4 7.8
2018-May-22 02:00N 38°54' W 076°25'5 8.0
2018-May-22 01:21N 38°59' W 076°23'25 9.0
2018-May-21 22:36N 39°22' W 076°09'210.0
2018-May-21 22:26N 39°22' W 076°07'4 9.4
2018-May-21 22:00N 39°25' W 076°03'4 8.2
2018-May-21 21:30N 39°29' W 076°04'4 8.0
2018-May-21 20:59N 39°33' W 076°05'2 3.5
2018-May-21 20:29N 39°34' W 076°06'0 0.0
2018-May-21 20:00N 39°34' W 076°06'0 0.0
2018-May-21 19:30N 39°34' W 076°06'0 0.0
2018-May-21 19:00N 39°34' W 076°06'0 0.1
2018-May-21 18:09N 39°34' W 076°06'0 0.5
2018-May-21 18:00N 39°34' W 076°06'4 7.7
2018-May-21 17:29N 39°30' W 076°05'4 8.4
2018-May-21 17:00N 39°27' W 076°02'31 9.3
2018-May-21 13:40N 39°00' W 076°23'2 9.2
2018-May-21 13:30N 38°59' W 076°23'4 8.9
2018-May-21 13:00N 38°55' W 076°24'6 8.7
2018-May-21 12:20N 38°49' W 076°26'117 8.0
2018-May-20 21:44N 36°52' W 076°20'2 9.4
2018-May-20 21:30N 36°51' W 076°18'2 3.4
2018-May-20 21:00N 36°50' W 076°16'1 2.4
2018-May-20 20:30N 36°51' W 076°17'0 0.3
2018-May-20 19:52N 36°50' W 076°17'0 0.0
2018-May-20 19:13N 36°50' W 076°17'0 0.0
2018-May-20 18:56N 36°50' W 076°17'2 4.2
2018-May-20 18:28N 36°50' W 076°15'0 0.2
2018-May-20 18:00N 36°50' W 076°15'3 6.0
2018-May-20 17:29N 36°51' W 076°19'117 7.5
2018-May-20 01:54N 38°48' W 076°27'3 7.2
2018-May-20 01:27N 38°51' W 076°26'3 7.2
2018-May-20 01:00N 38°54' W 076°26'4 7.1
2018-May-20 00:29N 38°58' W 076°24'4 7.4
2018-May-20 00:00N 39°01' W 076°22'4 7.5
2018-May-19 23:29N 39°05' W 076°21'10 7.9
2018-May-19 22:10N 39°14' W 076°15'2 8.9
2018-May-19 21:59N 39°16' W 076°14'7 9.2
2018-May-19 21:11N 39°22' W 076°09'3 9.3
2018-May-19 20:51N 39°23' W 076°05'3 8.4
2018-May-19 20:30N 39°25' W 076°02'4 7.5
2018-May-19 20:00N 39°29' W 076°04'3 6.9
2018-May-19 19:30N 39°32' W 076°05'2 4.6
2018-May-19 18:59N 39°34' W 076°06'0 0.5
2018-May-19 18:30N 39°34' W 076°06'0 0.0
2018-May-19 18:00N 39°34' W 076°06'0 0.6
2018-May-19 17:30N 39°34' W 076°06'3 6.5
2018-May-19 17:00N 39°31' W 076°05'4 7.4
2018-May-19 16:30N 39°28' W 076°03'4 8.1
2018-May-19 15:59N 39°24' W 076°04'6 9.8
2018-May-19 15:25N 39°21' W 076°10'16 8.8
2018-May-19 13:33N 39°11' W 076°27'0 8.4
2018-May-19 13:30N 39°11' W 076°28'4 8.1
2018-May-19 13:00N 39°13' W 076°32'3 6.3
2018-May-19 12:30N 39°15' W 076°36'0 1.0
2018-May-19 12:00N 39°15' W 076°36'0 0.1
2018-May-19 11:30N 39°15' W 076°36'2 3.8
2018-May-19 10:58N 39°15' W 076°33'14 7.2
2018-May-19 09:02N 39°03' W 076°23'3 7.3
2018-May-19 08:37N 39°00' W 076°22'1 7.2
2018-May-19 08:30N 38°60' W 076°23'3 6.4
2018-May-19 08:01N 38°57' W 076°24'3 6.7
2018-May-19 07:30N 38°53' W 076°24'2 4.2
2018-May-19 07:00N 38°51' W 076°25'3 4.8
2018-May-19 06:26N 38°49' W 076°26'  
2018-May-16 20:24N 38°47' W 076°27'4 7.9
2018-May-16 19:57N 38°51' W 076°25'4 8.3
2018-May-16 19:30N 38°54' W 076°24'23 8.5
2018-May-16 16:51N 39°15' W 076°14'3 8.5
2018-May-16 16:30N 39°18' W 076°13'4 8.4
2018-May-16 16:00N 39°21' W 076°09'4 8.1
2018-May-16 15:30N 39°23' W 076°05'3 6.8
2018-May-16 15:00N 39°26' W 076°02'24 4.9
2018-May-16 10:02N 39°11' W 076°27'0 8.7
2018-May-16 10:00N 39°11' W 076°27'4 8.6
2018-May-16 09:30N 39°13' W 076°32'4 7.6
2018-May-16 09:00N 39°16' W 076°35'1 2.3
2018-May-16 08:30N 39°15' W 076°36'1 1.6
2018-May-16 08:00N 39°15' W 076°36'0 0.7
2018-May-16 07:30N 39°16' W 076°35'0 0.9
2018-May-16 07:00N 39°15' W 076°36'1 1.3
2018-May-16 06:28N 39°15' W 076°36'1 2.6
2018-May-16 06:00N 39°15' W 076°35'3 6.3
2018-May-16 05:30N 39°13' W 076°32'28 5.4
2018-May-16 00:19N 39°32' W 076°05'2 1.6
2018-May-15 22:53N 39°34' W 076°06'0 0.0
2018-May-15 22:30N 39°34' W 076°06'0 0.0
2018-May-15 21:49N 39°34' W 076°06'0 0.0
2018-May-15 21:21N 39°34' W 076°06'0 0.0
2018-May-15 20:59N 39°34' W 076°06'0 0.1
2018-May-15 20:01N 39°34' W 076°06'0 0.0
2018-May-15 19:54N 39°34' W 076°06'0 0.0
2018-May-15 19:30N 39°34' W 076°06'2 3.6
2018-May-15 19:00N 39°33' W 076°05'4 7.5
2018-May-15 18:29N 39°29' W 076°05'3 7.0
2018-May-15 18:00N 39°26' W 076°02'4 6.1
2018-May-15 17:21N 39°23' W 076°06'2 4.1
2018-May-15 16:58N 39°22' W 076°07'23 7.2
2018-May-15 13:43N 39°02' W 076°22'2 8.2
2018-May-15 13:30N 39°00' W 076°23'4 8.2
2018-May-15 13:00N 38°56' W 076°24'4 8.4
2018-May-15 12:30N 38°52' W 076°25'40 8.3
2018-May-15 07:40N 38°12' W 076°17'1 9.0
2018-May-15 07:30N 38°11' W 076°17'15 8.9
2018-May-15 05:52N 37°57' W 076°12'4 9.7
2018-May-15 05:30N 37°54' W 076°10'61 7.8
2018-May-14 21:39N 36°53' W 076°20'2 7.9
2018-May-14 21:26N 36°52' W 076°19'4 4.5
2018-May-14 20:39N 36°50' W 076°15'1 6.2
2018-May-14 20:28N 36°50' W 076°16'1 2.5
2018-May-14 20:00N 36°50' W 076°17'0 0.0
2018-May-14 19:24N 36°50' W 076°17'0 0.0
2018-May-14 19:00N 36°50' W 076°17'0 0.0
2018-May-14 18:26N 36°50' W 076°17'0 0.0
2018-May-14 18:00N 36°50' W 076°17'0 0.0
2018-May-14 17:30N 36°50' W 076°17'0 0.0
2018-May-14 17:00N 36°50' W 076°17'0 0.0
2018-May-14 16:29N 36°50' W 076°17'0 0.0
2018-May-14 16:00N 36°50' W 076°17'0 0.0
2018-May-14 15:29N 36°50' W 076°17'0 0.0
2018-May-14 15:00N 36°50' W 076°17'0 0.0
2018-May-14 14:30N 36°50' W 076°17'0 0.0
2018-May-14 14:00N 36°50' W 076°17'0 0.0
2018-May-14 13:30N 36°50' W 076°17'0 0.0
2018-May-14 13:00N 36°50' W 076°17'0 0.0
2018-May-14 12:29N 36°50' W 076°17'0 0.0
2018-May-14 12:00N 36°50' W 076°17'0 0.0
2018-May-14 11:30N 36°50' W 076°17'0 0.0
2018-May-14 11:00N 36°50' W 076°17'0 0.0
2018-May-14 10:25N 36°50' W 076°17'0 0.0
2018-May-14 10:00N 36°50' W 076°17'0 0.0
2018-May-14 09:30N 36°50' W 076°17'  

Dump ship's entire track history